Time;durP1;ratioP1;P1;durP2;ratioP2;P2;SDS_P1;SDS_P2;PMS_P1;PMS_P2;Temp;Humidity;BMP_temperature;BMP_pressure;BME280_temperature;BME280_humidity;BME280_pressure;Samples;Min_cycle;Max_cycle;Signal;HPM_P1;HPM_P2
2022/01/01 00:02:05;;;;;;;;;414.75;365.00;;;;;;;;5160846;27;13303;-70
2022/01/01 00:04:30;;;;;;;;;345.75;304.50;;;;;;;;5142900;27;15286;-69
2022/01/01 00:06:55;;;;;;;;;346.25;303.25;;;;;;;;5142431;27;17468;-70
2022/01/01 00:09:21;;;;;;;;;375.50;325.50;;;;;;;;5142974;27;13382;-69
2022/01/01 00:11:46;;;;;;;;;334.00;287.75;;;;;;;;5161398;27;14624;-70
2022/01/01 00:14:12;;;;;;;;;318.33;274.00;;;;;;;;5161410;27;15469;-70
2022/01/01 00:16:37;;;;;;;;;302.67;269.00;;;;;;;;5160917;27;13321;-69
2022/01/01 00:19:02;;;;;;;;;271.00;240.75;;;;;;;;5161001;27;12296;-70
2022/01/01 00:21:27;;;;;;;;;251.50;221.00;;;;;;;;5161126;27;15149;-69
2022/01/01 00:23:53;;;;;;;;;277.00;247.67;;;;;;;;5161196;27;13286;-70
2022/01/01 00:26:18;;;;;;;;;265.00;232.00;;;;;;;;5160734;27;13369;-69
2022/01/01 00:28:44;;;;;;;;;262.33;233.33;;;;;;;;5160609;27;13503;-70
2022/01/01 00:31:09;;;;;;;;;234.25;210.25;;;;;;;;5160219;27;11649;-70
2022/01/01 00:33:35;;;;;;;;;239.00;202.00;;;;;;;;5160566;27;10420;-69
2022/01/01 00:36:00;;;;;;;;;248.75;213.00;;;;;;;;5161212;27;12318;-70
2022/01/01 00:38:26;;;;;;;;;253.00;220.00;;;;;;;;5161513;27;12515;-69
2022/01/01 00:40:51;;;;;;;;;259.33;230.33;;;;;;;;5142333;27;14640;-69
2022/01/01 00:43:16;;;;;;;;;245.50;218.25;;;;;;;;5161419;27;12343;-69
2022/01/01 00:45:42;;;;;;;;;264.50;227.50;;;;;;;;5160506;27;12306;-70
2022/01/01 00:48:07;;;;;;;;;264.00;230.75;;;;;;;;5160914;27;13321;-70
2022/01/01 12:56:14;;;;;;;;;153.00;135.50;;;;;;;;5158920;27;1508916;-75
2022/01/01 12:58:44;;;;;;;;;141.75;130.50;;;;;;;;5198563;27;24437;-74
2022/01/01 13:01:28;;;;;;;;;141.50;126.50;;;;;;;;5198762;27;12323;-74
2022/01/01 13:03:55;;;;;;;;;142.00;124.00;;;;;;;;5179831;27;13603;-75
2022/01/01 13:06:24;;;;;;;;;142.75;125.00;;;;;;;;5198405;27;13225;-75
2022/01/01 13:08:49;;;;;;;;;142.25;124.75;;;;;;;;5198695;27;9684;-73
2022/01/01 13:11:17;;;;;;;;;135.50;115.75;;;;;;;;5198435;27;12157;-74
2022/01/01 13:13:42;;;;;;;;;119.25;104.00;;;;;;;;5198033;27;12350;-74
2022/01/01 13:16:08;;;;;;;;;122.00;106.50;;;;;;;;5198114;27;13578;-72
2022/01/01 13:18:33;;;;;;;;;114.75;103.00;;;;;;;;5198902;27;13344;-72
2022/01/01 13:20:59;;;;;;;;;116.00;105.25;;;;;;;;5198659;27;13396;-74
2022/01/01 13:23:24;;;;;;;;;115.25;103.25;;;;;;;;5198922;27;11659;-73
2022/01/01 13:25:51;;;;;;;;;111.50;102.00;;;;;;;;5198516;27;10417;-73
2022/01/01 13:28:16;;;;;;;;;107.25;90.75;;;;;;;;5198073;27;11638;-75
2022/01/01 13:30:43;;;;;;;;;113.75;100.50;;;;;;;;5178612;27;23735;-75
2022/01/01 13:33:08;;;;;;;;;111.50;101.00;;;;;;;;5179542;27;23478;-76
2022/01/01 13:35:33;;;;;;;;;100.50;90.00;;;;;;;;5198844;27;11422;-74
2022/01/01 13:37:59;;;;;;;;;109.25;95.25;;;;;;;;5199045;27;25055;-75
2022/01/01 13:40:24;;;;;;;;;90.00;64.00;;;;;;;;5198903;27;11987;-72
2022/01/01 13:42:49;;;;;;;;;99.75;87.25;;;;;;;;5198320;27;24449;-72
2022/01/01 13:45:14;;;;;;;;;116.00;98.75;;;;;;;;5199154;27;12190;-81
2022/01/01 13:47:40;;;;;;;;;107.50;91.50;;;;;;;;5198671;27;23445;-79
2022/01/01 13:50:17;;;;;;;;;113.00;99.25;;;;;;;;5198603;27;12221;-76
2022/01/01 13:52:53;;;;;;;;;105.25;95.00;;;;;;;;5198177;27;12630;-75
2022/01/01 13:55:26;;;;;;;;;105.50;96.00;;;;;;;;5197477;27;12569;-82
2022/01/01 13:57:54;;;;;;;;;119.75;105.25;;;;;;;;5198521;27;10674;-79
2022/01/01 14:00:25;;;;;;;;;115.00;98.50;;;;;;;;5197901;27;23487;-83
2022/01/01 14:02:56;;;;;;;;;109.25;97.50;;;;;;;;5197040;27;24940;-77
2022/01/01 14:05:23;;;;;;;;;114.50;106.50;;;;;;;;5187465;27;12488;-77
2022/01/01 14:07:48;;;;;;;;;104.25;95.50;;;;;;;;5170373;27;23707;-79
2022/01/01 14:10:24;;;;;;;;;109.00;95.50;;;;;;;;5162717;27;23997;-77
2022/01/01 14:12:50;;;;;;;;;115.50;100.25;;;;;;;;5163155;27;9050;-77
2022/01/01 14:15:17;;;;;;;;;109.75;97.50;;;;;;;;5162788;27;24981;-79
2022/01/01 14:18:04;;;;;;;;;107.00;94.25;;;;;;;;5161389;27;23995;-78
2022/01/01 14:20:33;;;;;;;;;114.00;97.50;;;;;;;;5160872;27;10972;-75
2022/01/01 14:23:03;;;;;;;;;105.25;96.75;;;;;;;;5169618;27;12300;-73
2022/01/01 14:25:31;;;;;;;;;101.75;94.25;;;;;;;;5177839;27;12316;-73
2022/01/01 14:28:12;;;;;;;;;95.00;78.00;;;;;;;;5181340;27;9644;-75
2022/01/01 14:30:37;;;;;;;;;100.50;90.00;;;;;;;;5161447;27;25636;-74
2022/01/01 14:33:05;;;;;;;;;92.50;79.25;;;;;;;;5163590;27;23630;-75
2022/01/01 14:35:31;;;;;;;;;93.75;86.75;;;;;;;;5165243;27;26911;-74
2022/01/01 14:37:57;;;;;;;;;98.25;87.75;;;;;;;;5165148;27;13406;-81
2022/01/01 14:53:20;;;;;;;;;93.50;78.50;;;;;;;;5119461;27;13923;-68
2022/01/01 14:55:52;;;;;;;;;96.50;85.25;;;;;;;;5112743;27;13552;-82
2022/01/01 14:58:20;;;;;;;;;91.75;79.75;;;;;;;;5110814;28;12423;-85
2022/01/01 15:00:47;;;;;;;;;91.50;79.50;;;;;;;;5109575;28;11467;-90
2022/01/01 15:03:12;;;;;;;;;95.25;83.00;;;;;;;;5107029;27;8852;-86
2022/01/01 15:05:38;;;;;;;;;91.50;79.25;;;;;;;;5109258;28;12324;-79
2022/01/01 15:08:04;;;;;;;;;98.50;85.00;;;;;;;;5109129;28;12194;-78
2022/01/01 15:10:30;;;;;;;;;103.50;87.75;;;;;;;;5108793;28;12820;-82
2022/01/01 15:12:55;;;;;;;;;93.50;80.50;;;;;;;;5110609;28;23236;-81
2022/01/01 15:15:21;;;;;;;;;89.00;78.25;;;;;;;;5107889;28;23243;-83
2022/01/01 15:17:48;;;;;;;;;91.50;81.00;;;;;;;;5109273;28;13476;-77
2022/01/01 15:20:14;;;;;;;;;87.25;72.25;;;;;;;;5091189;28;15436;-80
2022/01/01 15:22:57;;;;;;;;;88.50;71.25;;;;;;;;5109593;28;13266;-77
2022/01/01 15:25:25;;;;;;;;;87.25;74.25;;;;;;;;5110420;28;10485;-79
2022/01/01 15:27:52;;;;;;;;;91.75;80.00;;;;;;;;5109692;28;10452;-77
2022/01/01 15:30:32;;;;;;;;;93.00;82.00;;;;;;;;5110590;28;14963;-83
2022/01/01 15:36:01;;;;;;;;;89.75;76.00;;;;;;;;5110404;28;12401;-79
2022/01/01 15:38:30;;;;;;;;;72.25;56.75;;;;;;;;5108445;28;13315;-79
2022/01/01 15:43:25;;;;;;;;;82.67;69.33;;;;;;;;5110326;28;12496;-74
2022/01/01 15:45:51;;;;;;;;;84.75;63.75;;;;;;;;5108378;28;11642;-78
2022/01/01 15:48:18;;;;;;;;;87.67;68.67;;;;;;;;5108329;28;10427;-75
2022/01/01 15:50:46;;;;;;;;;79.00;62.00;;;;;;;;5090335;28;13518;-75
2022/01/01 15:53:16;;;;;;;;;67.33;52.00;;;;;;;;5108735;27;13847;-74
2022/01/01 15:55:45;;;;;;;;;71.00;54.33;;;;;;;;5078668;28;13225;-74
2022/01/01 15:58:12;;;;;;;;;73.00;59.00;;;;;;;;5098371;28;13580;-75
2022/01/01 16:00:39;;;;;;;;;78.00;61.33;;;;;;;;5079691;28;11983;-75
2022/01/01 16:03:08;;;;;;;;;78.67;61.33;;;;;;;;5098980;28;12397;-72
2022/01/01 16:05:49;;;;;;;;;76.00;58.00;;;;;;;;5097824;28;8812;-77
2022/01/01 16:08:16;;;;;;;;;75.67;59.00;;;;;;;;5099042;28;12335;-73
2022/01/01 16:10:46;;;;;;;;;72.33;57.67;;;;;;;;5099385;28;11623;-72
2022/01/01 16:13:11;;;;;;;;;75.00;58.33;;;;;;;;5099342;28;11528;-72
2022/01/01 16:15:38;;;;;;;;;79.33;61.67;;;;;;;;5079802;28;13869;-73
2022/01/01 16:18:05;;;;;;;;;74.33;59.00;;;;;;;;5099658;28;12312;-72
2022/01/01 16:20:30;;;;;;;;;76.00;57.00;;;;;;;;5101978;27;12362;-73
2022/01/01 16:22:57;;;;;;;;;77.67;59.00;;;;;;;;5106437;27;11464;-73
2022/01/01 16:25:22;;;;;;;;;83.00;63.67;;;;;;;;5109435;27;10454;-73
2022/01/01 16:27:49;;;;;;;;;82.67;67.00;;;;;;;;5106116;28;13922;-74
2022/01/01 16:30:15;;;;;;;;;80.67;62.00;;;;;;;;5106898;27;11658;-75
2022/01/01 16:32:42;;;;;;;;;80.00;62.67;;;;;;;;5108884;28;8770;-73
2022/01/01 16:35:07;;;;;;;;;80.00;62.33;;;;;;;;5107151;28;8807;-73
2022/01/01 16:37:33;;;;;;;;;81.67;62.33;;;;;;;;5109114;27;8977;-72
2022/01/01 16:40:00;;;;;;;;;82.33;66.00;;;;;;;;5108995;28;8872;-70
2022/01/01 16:42:28;;;;;;;;;79.00;61.67;;;;;;;;5088464;28;13922;-72
2022/01/01 16:44:55;;;;;;;;;84.00;64.00;;;;;;;;5091445;28;15410;-72
2022/01/01 16:47:45;;;;;;;;;81.00;64.00;;;;;;;;5106669;28;13321;-71
2022/01/01 16:50:17;;;;;;;;;78.50;60.25;;;;;;;;5103235;28;8831;-71
2022/01/01 16:55:02;;;;;;;;;81.00;64.00;;;;;;;;5180723;27;76877;-69
2022/01/01 16:57:31;;;;;;;;;78.67;62.33;;;;;;;;5156549;27;23498;-70
2022/01/01 16:59:59;;;;;;;;;76.33;60.33;;;;;;;;5166677;27;14639;-70
2022/01/01 17:02:30;;;;;;;;;79.67;62.67;;;;;;;;5154753;27;10899;-78
2022/01/01 17:05:04;;;;;;;;;81.00;63.33;;;;;;;;5155353;27;11596;-70
2022/01/01 17:07:30;;;;;;;;;67.67;52.67;;;;;;;;5156505;27;13370;-73
2022/01/01 17:09:58;;;;;;;;;80.33;60.33;;;;;;;;5155591;27;13443;-70
2022/01/01 17:12:23;;;;;;;;;80.33;61.33;;;;;;;;5136060;27;15538;-70
2022/01/01 17:14:49;;;;;;;;;57.67;44.00;;;;;;;;5155780;27;8814;-69
2022/01/01 17:17:16;;;;;;;;;30.00;26.75;;;;;;;;5156035;27;13243;-71
2022/01/01 17:19:53;;;;;;;;;32.25;30.25;;;;;;;;5156109;27;13467;-70
2022/01/01 17:22:25;;;;;;;;;25.00;24.50;;;;;;;;5155977;27;12855;-70
2022/01/01 17:24:54;;;;;;;;;33.75;30.75;;;;;;;;5156169;27;13482;-69
2022/01/01 17:27:33;;;;;;;;;37.00;33.00;;;;;;;;5155983;27;13615;-69
2022/01/01 17:30:00;;;;;;;;;44.75;39.50;;;;;;;;5155663;27;11549;-70
2022/01/01 17:32:26;;;;;;;;;46.50;36.25;;;;;;;;5156359;27;13520;-70
2022/01/01 17:38:02;;;;;;;;;41.00;36.75;;;;;;;;5153514;27;12460;-71
2022/01/01 17:40:29;;;;;;;;;37.50;32.00;;;;;;;;5155826;27;12468;-70
2022/01/01 17:42:55;;;;;;;;;48.75;40.75;;;;;;;;5155569;27;13398;-72
2022/01/01 17:45:21;;;;;;;;;49.33;42.00;;;;;;;;5135552;27;16310;-71
2022/01/01 17:47:51;;;;;;;;;47.75;39.25;;;;;;;;5155694;27;12616;-71
2022/01/01 17:50:20;;;;;;;;;48.00;39.25;;;;;;;;5133058;27;12687;-71
2022/01/01 17:52:46;;;;;;;;;42.75;39.25;;;;;;;;5156066;27;11600;-72
2022/01/01 17:55:12;;;;;;;;;47.25;39.00;;;;;;;;5155954;27;11506;-73
2022/01/01 17:57:38;;;;;;;;;48.00;39.50;;;;;;;;5155455;27;11537;-73
2022/01/01 18:00:06;;;;;;;;;37.00;35.25;;;;;;;;5155602;27;11738;-74
2022/01/01 18:02:31;;;;;;;;;34.25;28.50;;;;;;;;5155636;27;13551;-72
2022/01/01 18:04:56;;;;;;;;;24.25;21.25;;;;;;;;5130630;27;14280;-73
2022/01/01 18:07:31;;;;;;;;;26.25;22.50;;;;;;;;5141542;27;13390;-72
2022/01/01 18:09:59;;;;;;;;;24.00;20.00;;;;;;;;5142041;27;11565;-74
2022/01/01 18:12:47;;;;;;;;;26.50;20.00;;;;;;;;5141099;27;11556;-72
2022/01/01 18:15:14;;;;;;;;;25.00;21.50;;;;;;;;5141603;27;12272;-72
2022/01/01 18:17:46;;;;;;;;;22.00;18.25;;;;;;;;5141206;27;12339;-73
2022/01/01 18:20:13;;;;;;;;;21.00;20.50;;;;;;;;5141033;27;12323;-75
2022/01/01 18:22:49;;;;;;;;;25.00;21.00;;;;;;;;5133390;27;12450;-73
2022/01/01 18:25:15;;;;;;;;;21.75;20.50;;;;;;;;5127390;27;11720;-72
2022/01/01 18:27:42;;;;;;;;;21.50;18.50;;;;;;;;5101534;28;13607;-72
2022/01/01 18:30:08;;;;;;;;;26.00;21.75;;;;;;;;5102026;28;13541;-70
2022/01/01 18:32:36;;;;;;;;;22.00;21.75;;;;;;;;5120440;28;13468;-71
2022/01/01 18:35:05;;;;;;;;;24.50;21.50;;;;;;;;5120766;28;8777;-70
2022/01/01 18:37:31;;;;;;;;;28.25;23.00;;;;;;;;5120564;28;12360;-71
2022/01/01 18:39:57;;;;;;;;;36.00;28.75;;;;;;;;5120354;28;11523;-73
2022/01/01 18:42:24;;;;;;;;;54.67;45.00;;;;;;;;5133288;27;13305;-72
2022/01/01 18:44:50;;;;;;;;;60.67;47.67;;;;;;;;5141290;27;13913;-73
2022/01/01 18:47:15;;;;;;;;;66.00;50.67;;;;;;;;5141413;27;13256;-73
2022/01/01 18:49:41;;;;;;;;;62.67;48.00;;;;;;;;5122155;27;13585;-74
2022/01/01 18:52:07;;;;;;;;;57.00;47.67;;;;;;;;5140876;27;12260;-71
2022/01/01 18:54:42;;;;;;;;;60.00;44.00;;;;;;;;5139366;27;14681;-74
2022/01/01 18:57:16;;;;;;;;;60.67;45.67;;;;;;;;5139878;27;13470;-77
2022/01/01 18:59:46;;;;;;;;;42.50;36.50;;;;;;;;5122289;27;11641;-71
2022/01/01 19:02:12;;;;;;;;;46.00;38.00;;;;;;;;5140572;27;13616;-72
2022/01/01 19:04:47;;;;;;;;;36.00;31.25;;;;;;;;5140521;27;11540;-70
2022/01/01 19:07:18;;;;;;;;;38.00;28.75;;;;;;;;5121858;27;16809;-72
2022/01/01 19:09:47;;;;;;;;;65.33;48.00;;;;;;;;5140090;27;11625;-72
2022/01/01 19:12:22;;;;;;;;;37.50;34.25;;;;;;;;5121710;27;15106;-72
2022/01/01 19:14:51;;;;;;;;;25.50;20.25;;;;;;;;5121716;27;15765;-73
2022/01/01 19:17:17;;;;;;;;;26.50;21.75;;;;;;;;5140006;27;11469;-73
2022/01/01 19:19:45;;;;;;;;;22.50;21.00;;;;;;;;5139758;27;11456;-73
2022/01/01 19:22:11;;;;;;;;;18.00;14.75;;;;;;;;5140554;27;12822;-71
2022/01/01 19:24:37;;;;;;;;;22.25;19.25;;;;;;;;5140314;27;13630;-72
2022/01/01 19:27:03;;;;;;;;;18.75;16.75;;;;;;;;5140519;27;12589;-72
2022/01/01 19:29:29;;;;;;;;;24.00;23.50;;;;;;;;5139998;27;12311;-73
2022/01/01 19:31:56;;;;;;;;;30.50;23.00;;;;;;;;5140218;27;13314;-75
2022/01/01 19:34:30;;;;;;;;;18.25;18.00;;;;;;;;5140084;27;13294;-78
2022/01/01 19:37:00;;;;;;;;;21.75;19.75;;;;;;;;5121178;27;15531;-76
2022/01/01 19:39:25;;;;;;;;;26.00;23.25;;;;;;;;5121059;27;15573;-78
2022/01/01 19:41:58;;;;;;;;;38.00;32.75;;;;;;;;5139600;27;11495;-77
2022/01/01 19:44:32;;;;;;;;;37.75;31.25;;;;;;;;5122538;27;14335;-72
2022/01/01 19:47:07;;;;;;;;;47.00;38.50;;;;;;;;5141269;27;11494;-72
2022/01/01 19:49:45;;;;;;;;;36.25;34.50;;;;;;;;5140549;27;13401;-74
2022/01/01 19:52:13;;;;;;;;;43.25;40.75;;;;;;;;5140586;27;13019;-74
2022/01/01 19:54:38;;;;;;;;;45.25;39.50;;;;;;;;5121341;27;15435;-72
2022/01/01 19:57:04;;;;;;;;;47.75;39.00;;;;;;;;5141365;27;12249;-73
2022/01/01 19:59:29;;;;;;;;;40.00;31.50;;;;;;;;5141361;27;12428;-78
2022/01/01 20:01:55;;;;;;;;;43.75;39.00;;;;;;;;5139403;27;12528;-75
2022/01/01 20:04:20;;;;;;;;;47.25;39.50;;;;;;;;5130078;27;12640;-74
2022/01/01 20:06:45;;;;;;;;;43.00;37.25;;;;;;;;5120404;28;11401;-73
2022/01/01 20:09:11;;;;;;;;;55.67;49.00;;;;;;;;5120136;28;11552;-72
2022/01/01 20:11:36;;;;;;;;;48.67;42.00;;;;;;;;5126257;27;13555;-72
2022/01/01 20:14:03;;;;;;;;;45.00;36.33;;;;;;;;5121903;27;12221;-72
2022/01/01 20:16:29;;;;;;;;;55.67;46.00;;;;;;;;5139322;27;12498;-74
2022/01/01 20:18:55;;;;;;;;;61.67;50.00;;;;;;;;5139912;27;13759;-70
2022/01/01 20:21:20;;;;;;;;;65.00;50.33;;;;;;;;5140143;27;10378;-73
2022/01/01 20:23:46;;;;;;;;;60.67;46.00;;;;;;;;5121552;27;13266;-74
2022/01/01 20:26:11;;;;;;;;;65.33;50.67;;;;;;;;5121665;27;14264;-75
2022/01/01 20:28:36;;;;;;;;;62.33;47.00;;;;;;;;5140035;27;12740;-72
2022/01/01 20:31:01;;;;;;;;;59.00;47.33;;;;;;;;5139274;27;12196;-72
2022/01/01 20:33:27;;;;;;;;;61.33;47.67;;;;;;;;5139079;27;13650;-72
2022/01/01 20:35:52;;;;;;;;;62.67;45.67;;;;;;;;5139784;27;13610;-71
2022/01/01 20:38:17;;;;;;;;;64.67;48.67;;;;;;;;5159316;27;10368;-72
2022/01/01 20:40:43;;;;;;;;;57.67;47.00;;;;;;;;5141325;27;9623;-72
2022/01/01 20:43:08;;;;;;;;;57.67;47.00;;;;;;;;5141531;27;13700;-72
2022/01/01 20:45:33;;;;;;;;;67.00;52.67;;;;;;;;5138253;27;8800;-72
2022/01/01 20:47:58;;;;;;;;;62.67;52.00;;;;;;;;5138750;27;13267;-73
2022/01/01 20:50:25;;;;;;;;;50.67;42.00;;;;;;;;5127902;27;11378;-72
2022/01/01 20:52:50;;;;;;;;;62.00;49.67;;;;;;;;5126413;27;9839;-73
2022/01/01 20:55:15;;;;;;;;;61.00;48.67;;;;;;;;5140345;27;13389;-72
2022/01/01 20:57:41;;;;;;;;;58.00;46.67;;;;;;;;5140343;27;8766;-72
2022/01/01 21:00:06;;;;;;;;;55.00;45.33;;;;;;;;5139154;27;10376;-73
2022/01/01 21:02:36;;;;;;;;;57.67;46.67;;;;;;;;5139477;27;11907;-72
2022/01/01 21:05:03;;;;;;;;;58.33;46.33;;;;;;;;5139732;27;11471;-73
2022/01/01 21:07:29;;;;;;;;;62.00;47.67;;;;;;;;5139691;27;11528;-74
2022/01/01 21:09:55;;;;;;;;;64.00;52.00;;;;;;;;5138923;27;13563;-73
2022/01/01 21:12:22;;;;;;;;;65.33;51.67;;;;;;;;5140218;27;13798;-74
2022/01/01 21:14:47;;;;;;;;;67.00;52.67;;;;;;;;5139392;27;11460;-73
2022/01/01 21:17:13;;;;;;;;;65.33;48.67;;;;;;;;5120580;27;12691;-73
2022/01/01 21:19:41;;;;;;;;;64.00;50.00;;;;;;;;5138982;27;11832;-73
2022/01/01 21:22:06;;;;;;;;;56.00;46.33;;;;;;;;5139337;27;12307;-73
2022/01/01 21:24:31;;;;;;;;;59.00;47.00;;;;;;;;5139718;27;13236;-74
2022/01/01 21:26:56;;;;;;;;;58.67;44.67;;;;;;;;5139401;27;11536;-73
2022/01/01 21:29:23;;;;;;;;;46.00;41.75;;;;;;;;5139301;27;11703;-71
2022/01/01 21:31:48;;;;;;;;;51.25;41.50;;;;;;;;5138894;27;13820;-71
2022/01/01 21:34:14;;;;;;;;;40.00;34.25;;;;;;;;5138118;27;13340;-72
2022/01/01 21:36:39;;;;;;;;;35.50;31.00;;;;;;;;5138895;27;13234;-74
2022/01/01 21:39:04;;;;;;;;;34.50;32.00;;;;;;;;5138777;27;13211;-73
2022/01/01 21:41:30;;;;;;;;;27.75;24.50;;;;;;;;5142897;27;8816;-72
2022/01/01 21:43:55;;;;;;;;;23.50;21.00;;;;;;;;5143026;27;14140;-72
2022/01/01 21:46:20;;;;;;;;;28.25;24.25;;;;;;;;5143647;27;11365;-72
2022/01/01 21:48:45;;;;;;;;;24.75;22.00;;;;;;;;5142718;27;11421;-71
2022/01/01 21:51:17;;;;;;;;;22.00;19.50;;;;;;;;5142402;27;11628;-72
2022/01/01 21:53:42;;;;;;;;;29.25;24.50;;;;;;;;5142102;27;12467;-72
2022/01/01 21:56:07;;;;;;;;;26.25;23.00;;;;;;;;5142412;27;11560;-73
2022/01/01 21:58:35;;;;;;;;;23.25;23.00;;;;;;;;5142365;27;11396;-72
2022/01/01 22:01:00;;;;;;;;;24.25;22.00;;;;;;;;5143385;27;8773;-72
2022/01/01 22:03:26;;;;;;;;;26.75;19.75;;;;;;;;5142327;27;11523;-71
2022/01/01 22:05:52;;;;;;;;;26.00;19.25;;;;;;;;5141898;27;12448;-71
2022/01/01 22:08:18;;;;;;;;;23.25;20.50;;;;;;;;5141998;27;8781;-72
2022/01/01 22:10:43;;;;;;;;;27.25;21.50;;;;;;;;5141874;27;12637;-72
2022/01/01 22:13:08;;;;;;;;;20.25;19.50;;;;;;;;5141606;27;12249;-71
2022/01/01 22:15:33;;;;;;;;;30.75;26.25;;;;;;;;5141805;27;9760;-73
2022/01/01 22:17:59;;;;;;;;;31.00;26.50;;;;;;;;5141314;27;13419;-72
2022/01/01 22:20:24;;;;;;;;;38.00;34.25;;;;;;;;5135691;27;11478;-72
2022/01/01 22:22:50;;;;;;;;;43.25;37.50;;;;;;;;5121094;27;12181;-72
2022/01/01 22:25:15;;;;;;;;;41.75;32.50;;;;;;;;5102698;27;15270;-73
2022/01/01 22:27:41;;;;;;;;;43.00;34.25;;;;;;;;5123640;27;9586;-72
2022/01/01 22:30:07;;;;;;;;;34.00;30.75;;;;;;;;5135788;27;12645;-72
2022/01/01 22:32:32;;;;;;;;;30.50;28.25;;;;;;;;5122693;27;12757;-73
2022/01/01 22:34:58;;;;;;;;;31.25;31.25;;;;;;;;5139483;27;11561;-71
2022/01/01 22:37:23;;;;;;;;;34.00;30.00;;;;;;;;5141538;27;11354;-85
2022/01/01 22:39:49;;;;;;;;;34.25;30.75;;;;;;;;5123285;27;13899;-72
2022/01/01 22:42:14;;;;;;;;;30.25;28.25;;;;;;;;5141880;27;8897;-71
2022/01/01 22:44:39;;;;;;;;;33.25;31.25;;;;;;;;5141700;27;11551;-72
2022/01/01 22:47:05;;;;;;;;;37.00;30.75;;;;;;;;5142535;27;10060;-72
2022/01/01 22:49:30;;;;;;;;;33.75;29.25;;;;;;;;5142238;27;12064;-73
2022/01/01 22:51:55;;;;;;;;;39.25;32.25;;;;;;;;5141950;27;11914;-73
2022/01/01 22:54:21;;;;;;;;;41.25;32.25;;;;;;;;5141833;27;10348;-72
2022/01/01 22:56:46;;;;;;;;;39.25;35.75;;;;;;;;5142060;27;8804;-71
2022/01/01 22:59:12;;;;;;;;;34.50;31.25;;;;;;;;5141774;27;12680;-71
2022/01/01 23:01:37;;;;;;;;;41.33;38.33;;;;;;;;5122805;27;10990;-71
2022/01/01 23:04:03;;;;;;;;;33.00;32.67;;;;;;;;5141620;27;12259;-72
2022/01/01 23:06:29;;;;;;;;;38.50;34.50;;;;;;;;5141625;27;13360;-71
2022/01/01 23:08:54;;;;;;;;;40.75;32.50;;;;;;;;5141493;27;11649;-71
2022/01/01 23:11:20;;;;;;;;;44.00;33.25;;;;;;;;5141625;27;12380;-73
2022/01/01 23:13:45;;;;;;;;;36.25;35.75;;;;;;;;5141590;27;11428;-72
2022/01/01 23:16:13;;;;;;;;;39.25;33.75;;;;;;;;5142094;27;12193;-72
2022/01/01 23:18:58;;;;;;;;;44.67;38.00;;;;;;;;5141081;27;8882;-72
2022/01/01 23:21:24;;;;;;;;;45.25;38.75;;;;;;;;5141083;27;13328;-72
2022/01/01 23:23:50;;;;;;;;;36.50;33.00;;;;;;;;5141472;27;11714;-72
2022/01/01 23:26:19;;;;;;;;;45.25;34.75;;;;;;;;5141465;27;13231;-72
2022/01/01 23:28:44;;;;;;;;;37.00;29.75;;;;;;;;5141459;27;13521;-72
2022/01/01 23:31:10;;;;;;;;;41.25;34.75;;;;;;;;5141599;27;12284;-71
2022/01/01 23:33:38;;;;;;;;;27.00;26.00;;;;;;;;5141400;27;12253;-71
2022/01/01 23:36:03;;;;;;;;;29.25;25.25;;;;;;;;5122299;27;14794;-73
2022/01/01 23:38:29;;;;;;;;;26.75;25.25;;;;;;;;5141033;27;11490;-71
2022/01/01 23:40:54;;;;;;;;;29.50;25.00;;;;;;;;5141806;27;8920;-72
2022/01/01 23:43:25;;;;;;;;;36.50;25.25;;;;;;;;5122558;27;14777;-72
2022/01/01 23:45:51;;;;;;;;;30.50;25.25;;;;;;;;5141510;27;13366;-72
2022/01/01 23:48:16;;;;;;;;;21.00;19.50;;;;;;;;5140857;27;11572;-71
2022/01/01 23:50:43;;;;;;;;;24.00;18.00;;;;;;;;5140081;27;13202;-73
2022/01/01 23:53:10;;;;;;;;;26.50;23.25;;;;;;;;5140861;27;11454;-72
2022/01/01 23:55:38;;;;;;;;;23.75;20.00;;;;;;;;5140544;27;13692;-72
2022/01/01 23:58:05;;;;;;;;;23.75;18.50;;;;;;;;5141624;27;11463;-72
